sensor_id;sensor_type;location;lat;lon;timestamp;P1;durP1;ratioP1;P2;durP2;ratioP2
62475;SDS011;50739;45.670;11.936;2023-07-13T00:02:27;3.20;;;1.63;;
62475;SDS011;50739;45.670;11.936;2023-07-13T00:07:29;3.57;;;1.20;;
62475;SDS011;50739;45.670;11.936;2023-07-13T00:12:34;3.80;;;1.38;;
62475;SDS011;50739;45.670;11.936;2023-07-13T00:17:39;2.80;;;1.13;;
62475;SDS011;50739;45.670;11.936;2023-07-13T00:22:41;6.70;;;1.70;;
62475;SDS011;50739;45.670;11.936;2023-07-13T00:27:44;3.20;;;1.13;;
62475;SDS011;50739;45.670;11.936;2023-07-13T00:32:50;2.35;;;1.23;;
62475;SDS011;50739;45.670;11.936;2023-07-13T00:37:52;2.22;;;0.90;;
62475;SDS011;50739;45.670;11.936;2023-07-13T00:42:56;3.45;;;1.77;;
62475;SDS011;50739;45.670;11.936;2023-07-13T00:48:01;4.25;;;2.30;;
62475;SDS011;50739;45.670;11.936;2023-07-13T00:53:04;5.78;;;1.80;;
62475;SDS011;50739;45.670;11.936;2023-07-13T00:58:06;3.13;;;1.30;;
62475;SDS011;50739;45.670;11.936;2023-07-13T01:03:10;3.20;;;1.33;;
62475;SDS011;50739;45.670;11.936;2023-07-13T01:08:13;2.00;;;1.10;;
62475;SDS011;50739;45.670;11.936;2023-07-13T01:13:15;1.97;;;1.07;;
62475;SDS011;50739;45.670;11.936;2023-07-13T01:18:20;3.23;;;1.13;;
62475;SDS011;50739;45.670;11.936;2023-07-13T01:23:26;2.43;;;0.93;;
62475;SDS011;50739;45.670;11.936;2023-07-13T01:28:30;2.47;;;1.48;;
62475;SDS011;50739;45.670;11.936;2023-07-13T01:33:37;1.63;;;0.90;;
62475;SDS011;50739;45.670;11.936;2023-07-13T01:38:42;2.15;;;1.20;;
62475;SDS011;50739;45.670;11.936;2023-07-13T01:43:45;3.40;;;1.35;;
62475;SDS011;50739;45.670;11.936;2023-07-13T01:48:47;2.22;;;1.20;;
62475;SDS011;50739;45.670;11.936;2023-07-13T01:53:51;3.97;;;1.55;;
62475;SDS011;50739;45.670;11.936;2023-07-13T01:58:53;3.08;;;1.00;;
62475;SDS011;50739;45.670;11.936;2023-07-13T02:03:55;2.30;;;1.13;;
62475;SDS011;50739;45.670;11.936;2023-07-13T02:08:59;4.07;;;1.60;;
62475;SDS011;50739;45.670;11.936;2023-07-13T02:14:02;1.67;;;1.00;;
62475;SDS011;50739;45.670;11.936;2023-07-13T02:19:04;5.70;;;1.60;;
62475;SDS011;50739;45.670;11.936;2023-07-13T02:24:08;3.30;;;1.60;;
62475;SDS011;50739;45.670;11.936;2023-07-13T02:29:10;4.37;;;2.30;;
62475;SDS011;50739;45.670;11.936;2023-07-13T02:34:13;3.22;;;1.55;;
62475;SDS011;50739;45.670;11.936;2023-07-13T02:39:16;3.13;;;1.67;;
62475;SDS011;50739;45.670;11.936;2023-07-13T02:44:19;4.93;;;1.57;;
62475;SDS011;50739;45.670;11.936;2023-07-13T02:49:21;3.75;;;2.22;;
62475;SDS011;50739;45.670;11.936;2023-07-13T02:54:25;4.75;;;1.80;;
62475;SDS011;50739;45.670;11.936;2023-07-13T02:59:27;3.97;;;1.98;;
62475;SDS011;50739;45.670;11.936;2023-07-13T03:04:30;4.17;;;1.90;;
62475;SDS011;50739;45.670;11.936;2023-07-13T03:09:34;3.25;;;1.50;;
62475;SDS011;50739;45.670;11.936;2023-07-13T03:14:36;4.57;;;2.00;;
62475;SDS011;50739;45.670;11.936;2023-07-13T03:19:39;3.38;;;1.80;;
62475;SDS011;50739;45.670;11.936;2023-07-13T03:24:42;5.13;;;1.98;;
62475;SDS011;50739;45.670;11.936;2023-07-13T03:29:45;3.17;;;1.63;;
62475;SDS011;50739;45.670;11.936;2023-07-13T03:34:47;3.63;;;1.97;;
62475;SDS011;50739;45.670;11.936;2023-07-13T03:39:51;4.10;;;1.77;;
62475;SDS011;50739;45.670;11.936;2023-07-13T03:44:53;3.97;;;1.88;;
62475;SDS011;50739;45.670;11.936;2023-07-13T03:49:56;4.00;;;1.63;;
62475;SDS011;50739;45.670;11.936;2023-07-13T03:55:00;2.20;;;1.75;;
62475;SDS011;50739;45.670;11.936;2023-07-13T04:00:02;5.35;;;1.70;;
62475;SDS011;50739;45.670;11.936;2023-07-13T04:05:06;2.65;;;1.42;;
62475;SDS011;50739;45.670;11.936;2023-07-13T04:10:10;2.65;;;1.50;;
62475;SDS011;50739;45.670;11.936;2023-07-13T04:15:14;3.05;;;1.38;;
62475;SDS011;50739;45.670;11.936;2023-07-13T04:20:16;1.90;;;1.15;;
62475;SDS011;50739;45.670;11.936;2023-07-13T04:25:21;4.97;;;1.70;;
62475;SDS011;50739;45.670;11.936;2023-07-13T04:30:24;2.17;;;1.20;;
62475;SDS011;50739;45.670;11.936;2023-07-13T04:35:26;4.18;;;1.42;;
62475;SDS011;50739;45.670;11.936;2023-07-13T04:40:30;3.38;;;1.50;;
62475;SDS011;50739;45.670;11.936;2023-07-13T04:45:32;3.42;;;1.42;;
62475;SDS011;50739;45.670;11.936;2023-07-13T04:50:36;4.60;;;1.60;;
62475;SDS011;50739;45.670;11.936;2023-07-13T04:55:40;2.70;;;1.60;;
62475;SDS011;50739;45.670;11.936;2023-07-13T05:00:43;2.30;;;1.50;;
62475;SDS011;50739;45.670;11.936;2023-07-13T05:05:54;3.80;;;1.60;;
62475;SDS011;50739;45.670;11.936;2023-07-13T05:11:00;3.35;;;1.80;;
62475;SDS011;50739;45.670;11.936;2023-07-13T05:16:04;4.35;;;1.60;;
62475;SDS011;50739;45.670;11.936;2023-07-13T05:21:09;4.88;;;1.90;;
62475;SDS011;50739;45.670;11.936;2023-07-13T05:26:13;3.03;;;1.80;;
62475;SDS011;50739;45.670;11.936;2023-07-13T05:31:16;2.95;;;1.75;;
62475;SDS011;50739;45.670;11.936;2023-07-13T05:36:18;2.50;;;1.40;;
62475;SDS011;50739;45.670;11.936;2023-07-13T05:41:22;4.63;;;1.52;;
62475;SDS011;50739;45.670;11.936;2023-07-13T05:46:24;4.40;;;1.50;;
62475;SDS011;50739;45.670;11.936;2023-07-13T05:51:27;2.88;;;1.60;;
62475;SDS011;50739;45.670;11.936;2023-07-13T05:56:30;3.72;;;1.65;;
62475;SDS011;50739;45.670;11.936;2023-07-13T06:01:33;2.60;;;1.38;;
62475;SDS011;50739;45.670;11.936;2023-07-13T06:06:35;3.93;;;1.67;;
62475;SDS011;50739;45.670;11.936;2023-07-13T06:11:39;3.35;;;1.30;;
62475;SDS011;50739;45.670;11.936;2023-07-13T06:16:41;3.70;;;1.02;;
62475;SDS011;50739;45.670;11.936;2023-07-13T06:21:43;3.22;;;1.40;;
62475;SDS011;50739;45.670;11.936;2023-07-13T06:26:47;2.43;;;1.43;;
62475;SDS011;50739;45.670;11.936;2023-07-13T06:31:49;4.05;;;1.33;;
62475;SDS011;50739;45.670;11.936;2023-07-13T06:36:52;3.58;;;1.23;;
62475;SDS011;50739;45.670;11.936;2023-07-13T06:41:55;3.15;;;1.58;;
62475;SDS011;50739;45.670;11.936;2023-07-13T06:46:58;5.23;;;1.70;;
62475;SDS011;50739;45.670;11.936;2023-07-13T06:52:00;5.23;;;2.10;;
62475;SDS011;50739;45.670;11.936;2023-07-13T06:57:04;3.28;;;1.60;;
62475;SDS011;50739;45.670;11.936;2023-07-13T07:02:07;2.40;;;1.27;;
62475;SDS011;50739;45.670;11.936;2023-07-13T07:07:12;3.37;;;1.90;;
62475;SDS011;50739;45.670;11.936;2023-07-13T07:12:15;2.23;;;1.40;;
62475;SDS011;50739;45.670;11.936;2023-07-13T07:17:18;3.45;;;1.42;;
62475;SDS011;50739;45.670;11.936;2023-07-13T07:22:20;1.77;;;1.13;;
62475;SDS011;50739;45.670;11.936;2023-07-13T07:27:24;1.70;;;1.27;;
62475;SDS011;50739;45.670;11.936;2023-07-13T07:32:28;1.85;;;1.33;;
62475;SDS011;50739;45.670;11.936;2023-07-13T07:37:31;2.83;;;1.23;;
62475;SDS011;50739;45.670;11.936;2023-07-13T07:42:34;3.63;;;1.30;;
62475;SDS011;50739;45.670;11.936;2023-07-13T07:47:37;2.95;;;1.50;;
62475;SDS011;50739;45.670;11.936;2023-07-13T07:52:39;3.97;;;1.80;;
62475;SDS011;50739;45.670;11.936;2023-07-13T07:57:43;4.43;;;1.55;;
62475;SDS011;50739;45.670;11.936;2023-07-13T08:02:45;2.13;;;1.10;;
62475;SDS011;50739;45.670;11.936;2023-07-13T08:07:48;2.15;;;1.40;;
62475;SDS011;50739;45.670;11.936;2023-07-13T08:12:52;3.70;;;1.40;;
62475;SDS011;50739;45.670;11.936;2023-07-13T08:17:54;3.05;;;1.70;;
62475;SDS011;50739;45.670;11.936;2023-07-13T08:22:56;2.55;;;1.70;;
62475;SDS011;50739;45.670;11.936;2023-07-13T08:28:02;3.33;;;1.60;;
62475;SDS011;50739;45.670;11.936;2023-07-13T08:33:05;2.90;;;1.63;;
62475;SDS011;50739;45.670;11.936;2023-07-13T08:38:07;3.30;;;1.80;;
62475;SDS011;50739;45.670;11.936;2023-07-13T08:43:12;4.90;;;1.70;;
62475;SDS011;50739;45.670;11.936;2023-07-13T08:48:18;2.67;;;1.60;;
62475;SDS011;50739;45.670;11.936;2023-07-13T08:53:28;4.03;;;1.90;;
62475;SDS011;50739;45.670;11.936;2023-07-13T08:58:38;3.45;;;2.00;;
62475;SDS011;50739;45.670;11.936;2023-07-13T09:03:46;3.75;;;1.80;;
62475;SDS011;50739;45.670;11.936;2023-07-13T09:08:54;6.75;;;2.33;;
62475;SDS011;50739;45.670;11.936;2023-07-13T09:14:06;4.25;;;1.90;;
62475;SDS011;50739;45.670;11.936;2023-07-13T09:19:31;3.22;;;2.17;;
62475;SDS011;50739;45.670;11.936;2023-07-13T09:24:36;4.47;;;2.28;;
62475;SDS011;50739;45.670;11.936;2023-07-13T09:29:42;6.32;;;2.63;;
62475;SDS011;50739;45.670;11.936;2023-07-13T09:34:52;4.35;;;2.03;;
62475;SDS011;50739;45.670;11.936;2023-07-13T09:39:55;4.13;;;2.20;;
62475;SDS011;50739;45.670;11.936;2023-07-13T09:45:01;4.38;;;1.95;;
62475;SDS011;50739;45.670;11.936;2023-07-13T09:50:06;5.30;;;2.67;;
62475;SDS011;50739;45.670;11.936;2023-07-13T09:55:23;5.95;;;2.35;;
62475;SDS011;50739;45.670;11.936;2023-07-13T10:00:29;2.55;;;1.88;;
62475;SDS011;50739;45.670;11.936;2023-07-13T10:05:39;2.80;;;1.67;;
62475;SDS011;50739;45.670;11.936;2023-07-13T10:10:42;3.80;;;1.90;;
62475;SDS011;50739;45.670;11.936;2023-07-13T10:15:46;4.35;;;2.05;;
62475;SDS011;50739;45.670;11.936;2023-07-13T10:20:50;3.67;;;1.80;;
62475;SDS011;50739;45.670;11.936;2023-07-13T10:26:01;3.28;;;1.70;;
62475;SDS011;50739;45.670;11.936;2023-07-13T10:31:07;4.28;;;2.20;;
62475;SDS011;50739;45.670;11.936;2023-07-13T10:36:15;4.10;;;2.25;;
62475;SDS011;50739;45.670;11.936;2023-07-13T10:41:30;4.38;;;2.90;;
62475;SDS011;50739;45.670;11.936;2023-07-13T10:46:38;3.40;;;2.10;;
62475;SDS011;50739;45.670;11.936;2023-07-13T10:51:40;4.10;;;2.00;;
62475;SDS011;50739;45.670;11.936;2023-07-13T10:56:42;2.75;;;1.73;;
62475;SDS011;50739;45.670;11.936;2023-07-13T11:01:51;1.17;;;1.07;;
62475;SDS011;50739;45.670;11.936;2023-07-13T11:06:57;2.03;;;1.20;;
62475;SDS011;50739;45.670;11.936;2023-07-13T11:12:01;3.25;;;2.00;;
62475;SDS011;50739;45.670;11.936;2023-07-13T11:22:43;1.88;;;1.10;;
62475;SDS011;50739;45.670;11.936;2023-07-13T11:27:50;2.15;;;1.27;;
62475;SDS011;50739;45.670;11.936;2023-07-13T11:33:08;4.00;;;1.23;;
62475;SDS011;50739;45.670;11.936;2023-07-13T11:38:16;1.67;;;1.08;;
62475;SDS011;50739;45.670;11.936;2023-07-13T11:43:20;2.47;;;1.27;;
62475;SDS011;50739;45.670;11.936;2023-07-13T11:48:26;3.83;;;1.30;;
62475;SDS011;50739;45.670;11.936;2023-07-13T11:53:34;2.73;;;1.30;;
62475;SDS011;50739;45.670;11.936;2023-07-13T11:58:40;2.53;;;1.55;;
62475;SDS011;50739;45.670;11.936;2023-07-13T12:03:44;3.30;;;1.70;;
62475;SDS011;50739;45.670;11.936;2023-07-13T12:08:48;4.03;;;1.50;;
62475;SDS011;50739;45.670;11.936;2023-07-13T12:13:50;4.13;;;1.70;;
62475;SDS011;50739;45.670;11.936;2023-07-13T12:18:54;4.85;;;2.03;;
62475;SDS011;50739;45.670;11.936;2023-07-13T12:23:57;2.97;;;1.63;;
62475;SDS011;50739;45.670;11.936;2023-07-13T12:29:04;6.07;;;2.30;;
62475;SDS011;50739;45.670;11.936;2023-07-13T12:34:10;6.00;;;2.77;;
62475;SDS011;50739;45.670;11.936;2023-07-13T12:39:15;4.65;;;2.03;;
62475;SDS011;50739;45.670;11.936;2023-07-13T12:44:21;4.27;;;2.23;;
62475;SDS011;50739;45.670;11.936;2023-07-13T12:49:31;3.83;;;2.00;;
62475;SDS011;50739;45.670;11.936;2023-07-13T12:54:38;4.93;;;2.25;;
62475;SDS011;50739;45.670;11.936;2023-07-13T12:59:41;6.63;;;2.70;;
62475;SDS011;50739;45.670;11.936;2023-07-13T13:04:45;5.20;;;2.50;;
62475;SDS011;50739;45.670;11.936;2023-07-13T13:09:50;4.40;;;2.45;;
62475;SDS011;50739;45.670;11.936;2023-07-13T13:14:53;2.83;;;2.30;;
62475;SDS011;50739;45.670;11.936;2023-07-13T13:19:57;4.47;;;2.50;;
62475;SDS011;50739;45.670;11.936;2023-07-13T13:24:59;5.30;;;2.70;;
62475;SDS011;50739;45.670;11.936;2023-07-13T13:30:02;5.38;;;3.08;;
62475;SDS011;50739;45.670;11.936;2023-07-13T13:35:08;8.60;;;3.57;;
62475;SDS011;50739;45.670;11.936;2023-07-13T13:40:15;8.33;;;5.63;;
62475;SDS011;50739;45.670;11.936;2023-07-13T13:45:19;6.10;;;3.13;;
62475;SDS011;50739;45.670;11.936;2023-07-13T13:50:23;4.63;;;3.00;;
62475;SDS011;50739;45.670;11.936;2023-07-13T13:55:26;8.00;;;3.60;;
62475;SDS011;50739;45.670;11.936;2023-07-13T14:00:28;6.85;;;3.13;;
62475;SDS011;50739;45.670;11.936;2023-07-13T14:05:33;5.68;;;3.05;;
62475;SDS011;50739;45.670;11.936;2023-07-13T14:10:36;5.28;;;2.83;;
62475;SDS011;50739;45.670;11.936;2023-07-13T14:15:39;6.35;;;2.90;;
62475;SDS011;50739;45.670;11.936;2023-07-13T14:20:42;4.97;;;3.00;;
62475;SDS011;50739;45.670;11.936;2023-07-13T14:25:45;7.30;;;3.30;;
62475;SDS011;50739;45.670;11.936;2023-07-13T14:30:48;6.53;;;2.85;;
62475;SDS011;50739;45.670;11.936;2023-07-13T14:35:52;6.17;;;3.10;;
62475;SDS011;50739;45.670;11.936;2023-07-13T14:40:55;6.20;;;3.23;;
62475;SDS011;50739;45.670;11.936;2023-07-13T14:45:57;6.70;;;3.60;;
62475;SDS011;50739;45.670;11.936;2023-07-13T14:51:01;5.07;;;3.20;;
62475;SDS011;50739;45.670;11.936;2023-07-13T14:56:08;5.80;;;3.05;;
62475;SDS011;50739;45.670;11.936;2023-07-13T15:01:12;8.47;;;3.27;;
62475;SDS011;50739;45.670;11.936;2023-07-13T15:06:19;4.85;;;2.42;;
62475;SDS011;50739;45.670;11.936;2023-07-13T15:11:21;5.10;;;2.40;;
62475;SDS011;50739;45.670;11.936;2023-07-13T15:16:24;4.00;;;2.35;;
62475;SDS011;50739;45.670;11.936;2023-07-13T15:21:29;4.00;;;2.60;;
62475;SDS011;50739;45.670;11.936;2023-07-13T15:26:35;4.40;;;2.40;;
62475;SDS011;50739;45.670;11.936;2023-07-13T15:31:37;4.53;;;2.30;;
62475;SDS011;50739;45.670;11.936;2023-07-13T15:36:42;5.70;;;2.58;;
62475;SDS011;50739;45.670;11.936;2023-07-13T15:41:45;4.63;;;2.30;;
62475;SDS011;50739;45.670;11.936;2023-07-13T15:46:48;4.40;;;2.33;;
62475;SDS011;50739;45.670;11.936;2023-07-13T15:51:52;6.30;;;2.40;;
62475;SDS011;50739;45.670;11.936;2023-07-13T15:56:54;5.93;;;3.08;;
62475;SDS011;50739;45.670;11.936;2023-07-13T16:02:07;6.13;;;2.80;;
62475;SDS011;50739;45.670;11.936;2023-07-13T16:07:15;4.30;;;2.87;;
62475;SDS011;50739;45.670;11.936;2023-07-13T16:12:19;4.28;;;2.70;;
62475;SDS011;50739;45.670;11.936;2023-07-13T16:17:23;6.67;;;2.20;;
62475;SDS011;50739;45.670;11.936;2023-07-13T16:22:26;4.40;;;2.67;;
62475;SDS011;50739;45.670;11.936;2023-07-13T16:27:29;5.15;;;2.00;;
62475;SDS011;50739;45.670;11.936;2023-07-13T16:32:31;2.60;;;1.60;;
62475;SDS011;50739;45.670;11.936;2023-07-13T16:37:35;4.50;;;1.90;;
62475;SDS011;50739;45.670;11.936;2023-07-13T16:42:37;3.15;;;1.77;;
62475;SDS011;50739;45.670;11.936;2023-07-13T16:47:39;4.00;;;1.80;;
62475;SDS011;50739;45.670;11.936;2023-07-13T16:52:43;4.32;;;1.70;;
62475;SDS011;50739;45.670;11.936;2023-07-13T16:57:46;4.70;;;1.90;;
62475;SDS011;50739;45.670;11.936;2023-07-13T17:02:49;2.63;;;1.58;;
62475;SDS011;50739;45.670;11.936;2023-07-13T17:07:54;1.53;;;1.43;;
62475;SDS011;50739;45.670;11.936;2023-07-13T17:12:57;4.07;;;1.98;;
62475;SDS011;50739;45.670;11.936;2023-07-13T17:18:00;3.90;;;1.60;;
62475;SDS011;50739;45.670;11.936;2023-07-13T17:23:09;3.57;;;1.40;;
62475;SDS011;50739;45.670;11.936;2023-07-13T17:28:15;3.60;;;1.90;;
62475;SDS011;50739;45.670;11.936;2023-07-13T17:33:30;2.55;;;1.60;;
62475;SDS011;50739;45.670;11.936;2023-07-13T17:38:38;3.43;;;1.70;;
62475;SDS011;50739;45.670;11.936;2023-07-13T17:43:44;3.22;;;1.70;;
62475;SDS011;50739;45.670;11.936;2023-07-13T17:48:47;3.33;;;1.77;;
62475;SDS011;50739;45.670;11.936;2023-07-13T17:53:53;4.22;;;2.03;;
62475;SDS011;50739;45.670;11.936;2023-07-13T17:58:56;2.45;;;1.50;;
62475;SDS011;50739;45.670;11.936;2023-07-13T18:03:59;3.72;;;1.60;;
62475;SDS011;50739;45.670;11.936;2023-07-13T18:09:12;5.18;;;1.90;;
62475;SDS011;50739;45.670;11.936;2023-07-13T18:14:16;3.28;;;1.70;;
62475;SDS011;50739;45.670;11.936;2023-07-13T18:19:26;3.22;;;1.60;;
62475;SDS011;50739;45.670;11.936;2023-07-13T18:24:33;3.50;;;1.70;;
62475;SDS011;50739;45.670;11.936;2023-07-13T18:29:36;6.75;;;1.90;;
62475;SDS011;50739;45.670;11.936;2023-07-13T18:34:39;4.10;;;2.00;;
62475;SDS011;50739;45.670;11.936;2023-07-13T18:39:45;4.30;;;1.80;;
62475;SDS011;50739;45.670;11.936;2023-07-13T18:44:48;3.70;;;1.90;;
62475;SDS011;50739;45.670;11.936;2023-07-13T18:49:50;3.88;;;1.65;;
62475;SDS011;50739;45.670;11.936;2023-07-13T18:54:57;4.80;;;1.95;;
62475;SDS011;50739;45.670;11.936;2023-07-13T18:59:59;2.90;;;1.75;;
62475;SDS011;50739;45.670;11.936;2023-07-13T19:05:05;3.63;;;2.10;;
62475;SDS011;50739;45.670;11.936;2023-07-13T19:10:17;3.27;;;1.97;;
62475;SDS011;50739;45.670;11.936;2023-07-13T19:15:22;6.00;;;2.08;;
62475;SDS011;50739;45.670;11.936;2023-07-13T19:20:27;2.92;;;1.70;;
62475;SDS011;50739;45.670;11.936;2023-07-13T19:25:32;2.77;;;2.03;;
62475;SDS011;50739;45.670;11.936;2023-07-13T19:30:34;3.63;;;1.93;;
62475;SDS011;50739;45.670;11.936;2023-07-13T19:35:37;3.23;;;2.17;;
62475;SDS011;50739;45.670;11.936;2023-07-13T19:40:41;3.10;;;2.30;;
62475;SDS011;50739;45.670;11.936;2023-07-13T19:45:44;4.57;;;2.33;;
62475;SDS011;50739;45.670;11.936;2023-07-13T19:50:46;3.83;;;2.70;;
62475;SDS011;50739;45.670;11.936;2023-07-13T19:55:51;6.33;;;3.47;;
62475;SDS011;50739;45.670;11.936;2023-07-13T20:00:53;5.07;;;2.90;;
62475;SDS011;50739;45.670;11.936;2023-07-13T20:05:56;5.65;;;3.38;;
62475;SDS011;50739;45.670;11.936;2023-07-13T20:11:01;7.40;;;3.78;;
62475;SDS011;50739;45.670;11.936;2023-07-13T20:16:04;5.63;;;3.20;;
62475;SDS011;50739;45.670;11.936;2023-07-13T20:21:08;4.90;;;3.20;;
62475;SDS011;50739;45.670;11.936;2023-07-13T20:26:13;4.53;;;3.50;;
62475;SDS011;50739;45.670;11.936;2023-07-13T20:31:15;4.55;;;2.65;;
62475;SDS011;50739;45.670;11.936;2023-07-13T20:36:18;6.53;;;2.92;;
62475;SDS011;50739;45.670;11.936;2023-07-13T20:41:22;3.53;;;2.23;;
62475;SDS011;50739;45.670;11.936;2023-07-13T20:46:25;6.53;;;2.95;;
62475;SDS011;50739;45.670;11.936;2023-07-13T20:51:27;4.17;;;2.77;;
62475;SDS011;50739;45.670;11.936;2023-07-13T20:56:31;4.90;;;2.63;;
62475;SDS011;50739;45.670;11.936;2023-07-13T21:01:35;4.07;;;2.58;;
62475;SDS011;50739;45.670;11.936;2023-07-13T21:06:40;3.83;;;2.47;;
62475;SDS011;50739;45.670;11.936;2023-07-13T21:11:44;4.47;;;2.60;;
62475;SDS011;50739;45.670;11.936;2023-07-13T21:16:46;4.57;;;1.97;;
62475;SDS011;50739;45.670;11.936;2023-07-13T21:21:49;4.50;;;2.10;;
62475;SDS011;50739;45.670;11.936;2023-07-13T21:26:52;6.07;;;2.17;;
62475;SDS011;50739;45.670;11.936;2023-07-13T21:31:57;4.63;;;2.00;;
62475;SDS011;50739;45.670;11.936;2023-07-13T21:36:59;5.22;;;2.20;;
62475;SDS011;50739;45.670;11.936;2023-07-13T21:42:03;4.50;;;2.30;;
62475;SDS011;50739;45.670;11.936;2023-07-13T21:47:06;3.25;;;2.00;;
62475;SDS011;50739;45.670;11.936;2023-07-13T21:52:12;4.45;;;2.42;;
62475;SDS011;50739;45.670;11.936;2023-07-13T21:57:18;4.70;;;2.05;;
62475;SDS011;50739;45.670;11.936;2023-07-13T22:02:20;4.25;;;2.40;;
62475;SDS011;50739;45.670;11.936;2023-07-13T22:07:23;3.28;;;2.05;;
62475;SDS011;50739;45.670;11.936;2023-07-13T22:12:27;4.00;;;2.20;;
62475;SDS011;50739;45.670;11.936;2023-07-13T22:17:29;3.90;;;2.00;;
62475;SDS011;50739;45.670;11.936;2023-07-13T22:22:31;5.00;;;2.20;;
62475;SDS011;50739;45.670;11.936;2023-07-13T22:27:35;5.30;;;2.20;;
62475;SDS011;50739;45.670;11.936;2023-07-13T22:32:37;4.55;;;2.40;;
62475;SDS011;50739;45.670;11.936;2023-07-13T22:37:40;4.63;;;2.30;;
62475;SDS011;50739;45.670;11.936;2023-07-13T22:42:44;2.87;;;2.60;;
62475;SDS011;50739;45.670;11.936;2023-07-13T22:47:47;4.67;;;2.17;;
62475;SDS011;50739;45.670;11.936;2023-07-13T22:52:51;4.70;;;2.22;;
62475;SDS011;50739;45.670;11.936;2023-07-13T22:57:55;5.75;;;2.53;;
62475;SDS011;50739;45.670;11.936;2023-07-13T23:02:57;3.58;;;2.60;;
62475;SDS011;50739;45.670;11.936;2023-07-13T23:08:00;6.57;;;2.40;;
62475;SDS011;50739;45.670;11.936;2023-07-13T23:13:03;3.17;;;2.20;;
62475;SDS011;50739;45.670;11.936;2023-07-13T23:18:07;3.92;;;2.47;;
62475;SDS011;50739;45.670;11.936;2023-07-13T23:23:12;3.47;;;2.50;;
62475;SDS011;50739;45.670;11.936;2023-07-13T23:28:17;3.55;;;2.20;;
62475;SDS011;50739;45.670;11.936;2023-07-13T23:33:20;5.67;;;2.63;;
62475;SDS011;50739;45.670;11.936;2023-07-13T23:38:24;4.33;;;2.60;;
62475;SDS011;50739;45.670;11.936;2023-07-13T23:43:28;4.43;;;2.45;;
62475;SDS011;50739;45.670;11.936;2023-07-13T23:48:31;3.05;;;2.38;;
62475;SDS011;50739;45.670;11.936;2023-07-13T23:53:33;4.00;;;2.28;;
62475;SDS011;50739;45.670;11.936;2023-07-13T23:58:37;3.23;;;2.20;;
